Terminal Aerodrome Forecast
Issued by NWS Greer, SC

Home | Current Version | Previous Version | Text Only | Print | Product List | Glossary On
Versions: 1 2 3 4 5 6 7 8 9 10 11 12 13 14 15 16 17 18 19 20 21 22 23 24 25 26 27 28 29 30 31 32 33 34 35 36 37 38 39
000
FTUS42 KGSP 251723
TAFAVL
TAF
KAVL 251723Z 2518/2618 35010KT P6SM BKN150
     FM260000 33005KT P6SM BKN040 OVC100
     FM260500 34006KT P6SM -RASN OVC012
     FM260900 33007KT 3SM -SN BR OVC008
     FM261600 33007KT P6SM VCSH OVC018=

USA.gov is the U.S. government's official web portal to all federal, state and local government web resources and services.